createdAt,value
2017-08-08T00:00:23.500Z,0
2017-08-08T00:01:23.483Z,0
2017-08-08T00:02:23.457Z,0
2017-08-08T00:03:23.439Z,0
2017-08-08T00:04:23.441Z,0
2017-08-08T00:05:23.395Z,0
2017-08-08T00:06:23.374Z,0
2017-08-08T00:07:23.059Z,0
2017-08-08T00:08:23.330Z,0
2017-08-08T00:09:23.305Z,0
2017-08-08T00:10:23.286Z,0
2017-08-08T00:11:22.668Z,0
2017-08-08T00:12:23.242Z,0
2017-08-08T00:13:23.237Z,0
2017-08-08T00:14:23.203Z,0
2017-08-08T00:15:23.180Z,0
2017-08-08T00:16:23.170Z,0
2017-08-08T00:17:23.137Z,0
2017-08-08T00:18:23.117Z,0
2017-08-08T00:19:22.801Z,0
2017-08-08T00:20:22.776Z,0
2017-08-08T00:21:23.052Z,0
2017-08-08T00:22:23.030Z,0
2017-08-08T00:23:23.012Z,0
2017-08-08T00:24:22.997Z,0
2017-08-08T00:25:22.093Z,0
2017-08-08T00:26:22.943Z,0
2017-08-08T00:27:22.624Z,0
2017-08-08T00:28:22.900Z,0
2017-08-08T00:29:22.296Z,0
2017-08-08T00:30:22.566Z,0
2017-08-08T00:31:22.842Z,0
2017-08-08T00:32:22.817Z,0
2017-08-08T00:33:22.493Z,0
2017-08-08T00:34:22.475Z,0
2017-08-08T00:35:22.759Z,0
2017-08-08T00:36:22.728Z,0
2017-08-08T00:37:22.712Z,0
2017-08-08T00:38:22.691Z,0
2017-08-08T00:39:22.660Z,0
2017-08-08T00:40:22.643Z,0
2017-08-08T00:41:22.631Z,0
2017-08-08T00:42:22.034Z,0
2017-08-08T00:43:22.285Z,0
2017-08-08T00:44:22.264Z,0
2017-08-08T00:45:22.539Z,0
2017-08-08T00:46:22.220Z,0
2017-08-08T00:47:22.514Z,0
2017-08-08T00:48:22.477Z,0
2017-08-08T00:49:22.453Z,0
2017-08-08T00:50:21.841Z,0
2017-08-08T00:51:22.424Z,0
2017-08-08T00:52:22.390Z,0
2017-08-08T00:53:22.364Z,0
2017-08-08T00:54:22.053Z,0
2017-08-08T00:55:22.025Z,0
2017-08-08T00:56:22.004Z,0
2017-08-08T00:57:22.282Z,0
2017-08-08T00:58:21.960Z,0
2017-08-08T00:59:22.241Z,0
2017-08-08T01:00:22.215Z,0
2017-08-08T01:01:22.200Z,0
2017-08-08T01:02:22.181Z,0
2017-08-08T01:03:22.149Z,0
2017-08-08T01:04:22.138Z,0
2017-08-08T01:05:22.112Z,0
2017-08-08T01:06:21.502Z,0
2017-08-08T01:07:21.777Z,0
2017-08-08T01:08:22.045Z,0
2017-08-08T01:09:22.029Z,0
2017-08-08T01:10:22.004Z,0
2017-08-08T01:11:21.683Z,0
2017-08-08T01:12:21.963Z,0
2017-08-08T01:13:21.939Z,0
2017-08-08T01:14:21.917Z,0
2017-08-08T01:15:21.898Z,0
2017-08-08T01:16:21.870Z,0
2017-08-08T01:17:21.858Z,0
2017-08-08T01:18:21.534Z,0
2017-08-08T01:19:21.514Z,0
2017-08-08T01:20:21.787Z,0
2017-08-08T01:21:21.766Z,0
2017-08-08T01:22:21.740Z,0
2017-08-08T01:23:21.420Z,0
2017-08-08T01:24:21.705Z,0
2017-08-08T01:25:21.380Z,0
2017-08-08T01:26:21.666Z,0
2017-08-08T01:27:21.340Z,0
2017-08-08T01:28:21.611Z,0
2017-08-08T01:29:21.596Z,0
2017-08-08T01:30:21.598Z,0
2017-08-08T01:31:21.558Z,0
2017-08-08T01:32:21.526Z,0
2017-08-08T01:33:21.505Z,0
2017-08-08T01:34:21.187Z,0
2017-08-08T01:35:21.467Z,0
2017-08-08T01:36:21.438Z,0
2017-08-08T01:37:21.411Z,0
2017-08-08T01:38:21.092Z,0
2017-08-08T01:39:21.366Z,0
2017-08-08T01:40:21.361Z,0
2017-08-08T01:41:21.325Z,0
2017-08-08T01:42:21.303Z,0
2017-08-08T01:43:20.984Z,0
2017-08-08T01:44:21.265Z,0
2017-08-08T01:45:21.239Z,0
2017-08-08T01:46:21.216Z,0
2017-08-08T01:47:21.200Z,0
2017-08-08T01:48:20.878Z,0
2017-08-08T01:49:21.148Z,0
2017-08-08T01:50:21.127Z,0
2017-08-08T01:51:21.112Z,0
2017-08-08T01:52:20.784Z,0
2017-08-08T01:53:20.847Z,0
2017-08-08T01:54:21.051Z,0
2017-08-08T01:55:21.010Z,0
2017-08-08T01:56:20.991Z,0
2017-08-08T01:57:20.972Z,0
2017-08-08T01:58:20.653Z,0
2017-08-08T01:59:20.923Z,0
2017-08-08T02:00:20.612Z,0
2017-08-08T02:01:20.882Z,0
2017-08-08T02:02:20.565Z,0
2017-08-08T02:03:20.837Z,0
2017-08-08T02:04:20.818Z,0
2017-08-08T02:05:20.492Z,0
2017-08-08T02:06:20.770Z,0
2017-08-08T02:07:20.743Z,0
2017-08-08T02:08:20.728Z,0
2017-08-08T02:09:20.705Z,0
2017-08-08T02:10:20.683Z,0
2017-08-08T02:11:20.664Z,0
2017-08-08T02:12:20.633Z,0
2017-08-08T02:13:20.908Z,0
2017-08-08T02:14:20.596Z,0
2017-08-08T02:15:20.569Z,0
2017-08-08T02:16:20.246Z,0
2017-08-08T02:17:20.521Z,0
2017-08-08T02:18:20.203Z,0
2017-08-08T02:19:20.184Z,0
2017-08-08T02:20:20.158Z,0
2017-08-08T02:21:20.137Z,0
2017-08-08T02:22:20.124Z,0
2017-08-08T02:23:20.389Z,0
2017-08-08T02:24:20.368Z,0
2017-08-08T02:25:20.048Z,0
2017-08-08T02:26:20.031Z,0
2017-08-08T02:27:20.003Z,0
2017-08-08T02:28:20.283Z,0
2017-08-08T02:29:20.252Z,0
2017-08-08T02:30:20.231Z,0
2017-08-08T02:31:20.210Z,0
2017-08-08T02:32:20.189Z,0
2017-08-08T02:33:19.867Z,0
2017-08-08T02:34:19.850Z,0
2017-08-08T02:35:20.117Z,0
2017-08-08T02:36:20.101Z,0
2017-08-08T02:37:20.073Z,0
2017-08-08T02:38:19.762Z,0
2017-08-08T02:39:19.732Z,0
2017-08-08T02:40:19.713Z,0
2017-08-08T02:41:19.991Z,0
2017-08-08T02:42:19.958Z,0
2017-08-08T02:43:19.645Z,0
2017-08-08T02:44:19.919Z,0
2017-08-08T02:45:19.608Z,0
2017-08-08T02:46:19.874Z,0
2017-08-08T02:47:19.855Z,0
2017-08-08T02:48:19.826Z,0
2017-08-08T02:49:19.812Z,0
2017-08-08T02:50:19.787Z,0
2017-08-08T02:51:19.759Z,0
2017-08-08T02:52:19.753Z,0
2017-08-08T02:53:19.719Z,0
2017-08-08T02:54:19.412Z,0
2017-08-08T02:55:19.379Z,0
2017-08-08T02:56:19.354Z,0
2017-08-08T02:57:19.328Z,0
2017-08-08T02:58:19.604Z,0
2017-08-08T02:59:19.580Z,0
2017-08-08T03:00:19.260Z,0
2017-08-08T03:01:19.537Z,0
2017-08-08T03:02:19.516Z,0
2017-08-08T03:03:19.487Z,0
2017-08-08T03:04:19.169Z,0
2017-08-08T03:05:19.441Z,0
2017-08-08T03:06:19.420Z,0
2017-08-08T03:07:19.409Z,0
2017-08-08T03:08:19.385Z,0
2017-08-08T03:09:19.357Z,0
2017-08-08T03:10:19.337Z,0
2017-08-08T03:11:19.314Z,0
2017-08-08T03:12:19.289Z,0
2017-08-08T03:13:19.262Z,0
2017-08-08T03:14:19.236Z,0
2017-08-08T03:15:19.220Z,0
2017-08-08T03:16:19.195Z,0
2017-08-08T03:17:19.168Z,0
2017-08-08T03:18:19.151Z,0
2017-08-08T03:19:19.130Z,0
2017-08-08T03:20:19.112Z,0
2017-08-08T03:21:19.086Z,0
2017-08-08T03:22:18.760Z,0
2017-08-08T03:23:19.036Z,0
2017-08-08T03:24:18.420Z,0
2017-08-08T03:25:18.990Z,0
2017-08-08T03:26:18.967Z,0
2017-08-08T03:27:18.941Z,4
2017-08-08T03:28:18.923Z,4
2017-08-08T03:29:18.605Z,4
2017-08-08T03:30:18.590Z,0
2017-08-08T03:31:18.562Z,4
2017-08-08T03:32:18.836Z,4
2017-08-08T03:33:18.810Z,8
2017-08-08T03:34:18.787Z,4
2017-08-08T03:35:18.762Z,8
2017-08-08T03:36:18.741Z,8
2017-08-08T03:37:18.722Z,8
2017-08-08T03:38:18.699Z,8
2017-08-08T03:39:18.684Z,8
2017-08-08T03:40:18.684Z,16
2017-08-08T03:41:18.627Z,16
2017-08-08T03:42:18.606Z,20
2017-08-08T03:43:18.584Z,20
2017-08-08T03:44:18.264Z,20
2017-08-08T03:45:18.246Z,28
2017-08-08T03:46:18.521Z,28
2017-08-08T03:47:18.486Z,36
2017-08-08T03:48:18.472Z,40
2017-08-08T03:49:18.455Z,44
2017-08-08T03:50:18.432Z,52
2017-08-08T03:51:18.109Z,60
2017-08-08T03:52:18.383Z,68
2017-08-08T03:53:18.361Z,76
2017-08-08T03:54:18.041Z,88
2017-08-08T03:55:18.362Z,92
2017-08-08T03:56:18.298Z,104
2017-08-08T03:57:18.272Z,116
2017-08-08T03:58:18.246Z,128
2017-08-08T03:59:18.228Z,144
2017-08-08T04:00:18.204Z,156
2017-08-08T04:01:18.181Z,172
2017-08-08T04:02:17.858Z,192
2017-08-08T04:03:18.133Z,212
2017-08-08T04:04:18.113Z,236
2017-08-08T04:05:18.098Z,260
2017-08-08T04:06:17.770Z,284
2017-08-08T04:07:18.045Z,308
2017-08-08T04:08:18.023Z,344
2017-08-08T04:09:17.707Z,380
2017-08-08T04:10:17.681Z,420
2017-08-08T04:11:17.959Z,440
2017-08-08T04:12:17.338Z,456
2017-08-08T04:13:17.612Z,472
2017-08-08T04:14:17.888Z,480
2017-08-08T04:15:17.867Z,508
2017-08-08T04:16:17.848Z,552
2017-08-08T04:17:17.828Z,592
2017-08-08T04:18:17.802Z,608
2017-08-08T04:19:17.779Z,584
2017-08-08T04:20:17.773Z,556
2017-08-08T04:21:17.431Z,556
2017-08-08T04:22:17.709Z,580
2017-08-08T04:23:17.390Z,636
2017-08-08T04:24:16.772Z,716
2017-08-08T04:25:17.640Z,788
2017-08-08T04:26:17.626Z,848
2017-08-08T04:27:17.301Z,896
2017-08-08T04:28:17.573Z,940
2017-08-08T04:29:17.547Z,944
2017-08-08T04:30:17.534Z,952
2017-08-08T04:31:17.502Z,968
2017-08-08T04:32:17.482Z,976
2017-08-08T04:33:17.527Z,976
2017-08-08T04:34:17.442Z,992
2017-08-08T04:35:17.419Z,1056
2017-08-08T04:36:17.106Z,1120
2017-08-08T04:37:17.071Z,1192
2017-08-08T04:38:17.050Z,1260
2017-08-08T04:39:17.036Z,1332
2017-08-08T04:40:17.011Z,1428
2017-08-08T04:41:16.990Z,1532
2017-08-08T04:42:17.261Z,1644
2017-08-08T04:43:16.950Z,1752
2017-08-08T04:44:17.218Z,1848
2017-08-08T04:45:17.204Z,1920
2017-08-08T04:46:17.168Z,2008
2017-08-08T04:47:17.152Z,2088
2017-08-08T04:48:17.128Z,2188
2017-08-08T04:49:17.105Z,2300
2017-08-08T04:50:17.092Z,2420
2017-08-08T04:51:17.065Z,2532
2017-08-08T04:52:16.743Z,2632
2017-08-08T04:53:17.017Z,2656
2017-08-08T04:54:17.011Z,2612
2017-08-08T04:55:16.972Z,2536
2017-08-08T04:56:16.955Z,2516
2017-08-08T04:57:16.948Z,2512
2017-08-08T04:58:16.913Z,2524
2017-08-08T04:59:16.889Z,2532
2017-08-08T05:00:16.574Z,2528
2017-08-08T05:01:16.551Z,2512
2017-08-08T05:02:16.818Z,2500
2017-08-08T05:03:16.801Z,2504
2017-08-08T05:04:16.779Z,2548
2017-08-08T05:05:16.760Z,2636
2017-08-08T05:06:16.739Z,2772
2017-08-08T05:07:16.715Z,2884
2017-08-08T05:08:16.690Z,3000
2017-08-08T05:09:16.379Z,3124
2017-08-08T05:10:16.351Z,3188
2017-08-08T05:11:16.624Z,3192
2017-08-08T05:12:16.603Z,3152
2017-08-08T05:13:16.588Z,3116
2017-08-08T05:14:16.565Z,3148
2017-08-08T05:15:16.543Z,3220
2017-08-08T05:16:16.521Z,3312
2017-08-08T05:17:16.205Z,3468
2017-08-08T05:18:16.181Z,3592
2017-08-08T05:19:16.163Z,3704
2017-08-08T05:20:16.443Z,3824
2017-08-08T05:21:16.417Z,3996
2017-08-08T05:22:16.392Z,4136
2017-08-08T05:23:16.070Z,4148
2017-08-08T05:24:16.055Z,4260
2017-08-08T05:25:16.328Z,4376
2017-08-08T05:26:16.345Z,4448
2017-08-08T05:27:16.286Z,4404
2017-08-08T05:28:16.276Z,4192
2017-08-08T05:29:16.249Z,3988
2017-08-08T05:30:15.929Z,3728
2017-08-08T05:31:16.224Z,3512
2017-08-08T05:32:16.184Z,3340
2017-08-08T05:33:16.167Z,3232
2017-08-08T05:34:16.138Z,3160
2017-08-08T05:35:16.118Z,3164
2017-08-08T05:36:16.098Z,3204
2017-08-08T05:37:16.073Z,3296
2017-08-08T05:38:16.057Z,3444
2017-08-08T05:39:16.029Z,3772
2017-08-08T05:40:16.009Z,4316
2017-08-08T05:41:15.988Z,5072
2017-08-08T05:42:15.968Z,5852
2017-08-08T05:43:15.948Z,6580
2017-08-08T05:44:15.629Z,7292
2017-08-08T05:45:15.906Z,7968
2017-08-08T05:46:15.885Z,8520
2017-08-08T05:47:15.564Z,8984
2017-08-08T05:48:15.555Z,9408
2017-08-08T05:49:15.528Z,9740
2017-08-08T05:50:15.520Z,9736
2017-08-08T05:51:15.490Z,9588
2017-08-08T05:52:15.758Z,9208
2017-08-08T05:53:15.447Z,8768
2017-08-08T05:54:15.428Z,8200
2017-08-08T05:55:15.704Z,7772
2017-08-08T05:56:15.677Z,7488
2017-08-08T05:57:15.372Z,7548
2017-08-08T05:58:15.348Z,7672
2017-08-08T05:59:15.627Z,7960
2017-08-08T06:00:15.307Z,8256
2017-08-08T06:01:15.284Z,10980
2017-08-08T06:02:15.263Z,13512
2017-08-08T06:03:15.539Z,16416
2017-08-08T06:04:15.524Z,16864
2017-08-08T06:05:15.204Z,17248
2017-08-08T06:06:15.516Z,17440
2017-08-08T06:07:14.866Z,17728
2017-08-08T06:08:15.438Z,18464
2017-08-08T06:09:15.424Z,18304
2017-08-08T06:10:15.110Z,18688
2017-08-08T06:11:15.091Z,18912
2017-08-08T06:12:15.362Z,19104
2017-08-08T06:13:15.347Z,17600
2017-08-08T06:14:15.330Z,17280
2017-08-08T06:15:15.317Z,17088
2017-08-08T06:16:15.294Z,17632
2017-08-08T06:17:15.273Z,18304
2017-08-08T06:18:14.968Z,18400
2017-08-08T06:19:15.250Z,18784
2017-08-08T06:20:14.922Z,15908
2017-08-08T06:21:14.907Z,15416
2017-08-08T06:22:14.888Z,16060
2017-08-08T06:23:15.165Z,17568
2017-08-08T06:24:15.148Z,19168
2017-08-08T06:25:15.132Z,18976
2017-08-08T06:26:15.114Z,17472
2017-08-08T06:27:15.096Z,13828
2017-08-08T06:28:14.782Z,13608
2017-08-08T06:29:14.763Z,12620
2017-08-08T06:30:15.125Z,11956
2017-08-08T06:31:15.035Z,11432
2017-08-08T06:32:15.005Z,11528
2017-08-08T06:33:14.991Z,12048
2017-08-08T06:34:14.971Z,12040
2017-08-08T06:35:15.834Z,12344
2017-08-08T06:36:15.321Z,13056
2017-08-08T06:37:14.706Z,13956
2017-08-08T06:38:14.900Z,15012
2017-08-08T06:39:14.730Z,17440
2017-08-08T06:40:15.091Z,23456
2017-08-08T06:41:14.922Z,26144
2017-08-08T06:42:15.298Z,25152
2017-08-08T06:43:15.053Z,24736
2017-08-08T06:44:14.816Z,25120
2017-08-08T06:45:14.779Z,24128
2017-08-08T06:46:14.764Z,24384
2017-08-08T06:47:14.746Z,24608
2017-08-08T06:48:14.725Z,25088
2017-08-08T06:49:14.717Z,24448
2017-08-08T06:50:14.703Z,23456
2017-08-08T06:51:14.745Z,21344
2017-08-08T06:52:14.712Z,20768
2017-08-08T06:53:15.110Z,19712
2017-08-08T06:54:14.636Z,17488
2017-08-08T06:55:14.316Z,16384
2017-08-08T06:56:14.598Z,16196
2017-08-08T06:57:14.288Z,16096
2017-08-08T06:58:15.256Z,16412
2017-08-08T06:59:16.422Z,16176
2017-08-08T07:00:15.016Z,16904
2017-08-08T07:01:14.683Z,18208
2017-08-08T07:02:14.385Z,19232
2017-08-08T07:03:14.487Z,21952
2017-08-08T07:04:14.479Z,26304
2017-08-08T07:05:14.198Z,23264
2017-08-08T07:06:13.592Z,16220
2017-08-08T07:07:14.429Z,17368
2017-08-08T07:08:14.422Z,17984
2017-08-08T07:09:14.401Z,17728
2017-08-08T07:10:14.135Z,18240
2017-08-08T07:11:14.360Z,18304
2017-08-08T07:12:14.350Z,20000
2017-08-08T07:13:14.335Z,21632
2017-08-08T07:14:14.316Z,22624
2017-08-08T07:15:14.319Z,23328
2017-08-08T07:16:14.287Z,24192
2017-08-08T07:17:13.676Z,24320
2017-08-08T07:18:13.974Z,23840
2017-08-08T07:19:13.946Z,23936
2017-08-08T07:20:14.223Z,23360
2017-08-08T07:21:14.340Z,21888
2017-08-08T07:22:14.204Z,23296
2017-08-08T07:23:14.187Z,22848
2017-08-08T07:24:14.170Z,21856
2017-08-08T07:25:14.153Z,21056
2017-08-08T07:26:14.141Z,20224
2017-08-08T07:27:13.838Z,19424
2017-08-08T07:28:13.814Z,18848
2017-08-08T07:29:13.800Z,18560
2017-08-08T07:30:13.786Z,18656
2017-08-08T07:31:13.773Z,19104
2017-08-08T07:32:13.757Z,19456
2017-08-08T07:33:13.736Z,19456
2017-08-08T07:34:13.737Z,19616
2017-08-08T07:35:13.717Z,19648
2017-08-08T07:36:13.699Z,19552
2017-08-08T07:37:13.975Z,19392
2017-08-08T07:38:13.968Z,19008
2017-08-08T07:39:13.951Z,18688
2017-08-08T07:40:13.936Z,18528
2017-08-08T07:41:13.927Z,18400
2017-08-08T07:42:13.907Z,18336
2017-08-08T07:43:13.891Z,18304
2017-08-08T07:44:13.596Z,18432
2017-08-08T07:45:13.568Z,18720
2017-08-08T07:46:13.671Z,18912
2017-08-08T07:47:13.840Z,18976
2017-08-08T07:48:13.823Z,19296
2017-08-08T07:49:13.534Z,19392
2017-08-08T07:50:13.496Z,19616
2017-08-08T07:51:13.487Z,19776
2017-08-08T07:52:13.768Z,19840
2017-08-08T07:53:14.101Z,19840
2017-08-08T07:54:13.442Z,19744
2017-08-08T07:55:13.726Z,19680
2017-08-08T07:56:13.712Z,19680
2017-08-08T07:57:13.692Z,19680
2017-08-08T07:58:13.392Z,19552
2017-08-08T07:59:13.668Z,19456
2017-08-08T08:00:13.654Z,19392
2017-08-08T08:01:13.641Z,19264
2017-08-08T08:02:13.622Z,19040
2017-08-08T08:03:13.617Z,18752
2017-08-08T08:04:14.053Z,18336
2017-08-08T08:05:13.589Z,17952
2017-08-08T08:06:13.584Z,17632
2017-08-08T08:07:13.563Z,17440
2017-08-08T08:08:13.596Z,17440
2017-08-08T08:09:13.230Z,17504
2017-08-08T08:10:13.217Z,17568
2017-08-08T08:11:13.504Z,17600
2017-08-08T08:12:14.053Z,17696
2017-08-08T08:13:13.475Z,17856
2017-08-08T08:14:14.002Z,17984
2017-08-08T08:15:14.388Z,18080
2017-08-08T08:16:13.433Z,18112
2017-08-08T08:17:13.119Z,18080
2017-08-08T08:18:12.812Z,17952
2017-08-08T08:19:13.100Z,17728
2017-08-08T08:20:13.303Z,17536
2017-08-08T08:21:13.577Z,17472
2017-08-08T08:22:13.158Z,17504
2017-08-08T08:23:13.489Z,17632
2017-08-08T08:24:13.165Z,17824
2017-08-08T08:25:14.937Z,17952
2017-08-08T08:26:13.322Z,18048
2017-08-08T08:27:13.284Z,18208
2017-08-08T08:28:12.971Z,18400
2017-08-08T08:29:13.257Z,18688
2017-08-08T08:30:13.236Z,18880
2017-08-08T08:31:12.925Z,19104
2017-08-08T08:32:13.214Z,19264
2017-08-08T08:33:13.197Z,19424
2017-08-08T08:34:13.179Z,19552
2017-08-08T08:35:12.928Z,19744
2017-08-08T08:36:12.859Z,20160
2017-08-08T08:37:13.145Z,20512
2017-08-08T08:38:12.831Z,20864
2017-08-08T08:39:13.113Z,21120
2017-08-08T08:40:13.151Z,21312
2017-08-08T08:41:13.092Z,21568
2017-08-08T08:42:13.074Z,21824
2017-08-08T08:43:12.770Z,21888
2017-08-08T08:44:13.038Z,21792
2017-08-08T08:45:13.026Z,21664
2017-08-08T08:46:13.013Z,21568
2017-08-08T08:47:13.003Z,21504
2017-08-08T08:48:12.988Z,21344
2017-08-08T08:49:12.969Z,21120
2017-08-08T08:50:12.771Z,20896
2017-08-08T08:51:12.357Z,20672
2017-08-08T08:52:12.935Z,20544
2017-08-08T08:53:12.915Z,20352
2017-08-08T08:54:12.908Z,20192
2017-08-08T08:55:12.595Z,20064
2017-08-08T08:56:12.584Z,20000
2017-08-08T08:57:12.869Z,19872
2017-08-08T08:58:12.902Z,19776
2017-08-08T08:59:12.837Z,19680
2017-08-08T09:00:12.821Z,19616
2017-08-08T09:01:12.828Z,19584
2017-08-08T09:02:12.801Z,19552
2017-08-08T09:03:12.792Z,19552
2017-08-08T09:04:12.781Z,19456
2017-08-08T09:05:12.768Z,19232
2017-08-08T09:06:12.748Z,18912
2017-08-08T09:07:12.736Z,18496
2017-08-08T09:08:12.717Z,18016
2017-08-08T09:09:12.705Z,17632
2017-08-08T09:10:12.697Z,17344
2017-08-08T09:11:12.690Z,17120
2017-08-08T09:12:12.370Z,16744
2017-08-08T09:13:12.652Z,16456
2017-08-08T09:14:12.634Z,16148
2017-08-08T09:15:12.630Z,15892
2017-08-08T09:16:13.249Z,15716
2017-08-08T09:17:12.727Z,15556
2017-08-08T09:18:12.581Z,15376
2017-08-08T09:19:12.571Z,15144
2017-08-08T09:20:12.259Z,14896
2017-08-08T09:21:12.543Z,14716
2017-08-08T09:22:12.528Z,14644
2017-08-08T09:23:12.536Z,14632
2017-08-08T09:24:12.498Z,14620
2017-08-08T09:25:12.489Z,14632
2017-08-08T09:26:12.474Z,14624
2017-08-08T09:27:12.465Z,14608
2017-08-08T09:28:12.150Z,14564
2017-08-08T09:29:12.431Z,14552
2017-08-08T09:30:12.426Z,14612
2017-08-08T09:31:12.419Z,14744
2017-08-08T09:32:12.420Z,14940
2017-08-08T09:33:12.382Z,15256
2017-08-08T09:34:12.069Z,15680
2017-08-08T09:35:12.355Z,16164
2017-08-08T09:36:12.336Z,16716
2017-08-08T09:37:12.334Z,17472
2017-08-08T09:38:12.308Z,17984
2017-08-08T09:39:12.302Z,18464
2017-08-08T09:40:12.288Z,18912
2017-08-08T09:41:11.974Z,19328
2017-08-08T09:42:12.262Z,19648
2017-08-08T09:43:12.249Z,19968
2017-08-08T09:44:12.237Z,20288
2017-08-08T09:45:12.224Z,20512
2017-08-08T09:46:12.204Z,20576
2017-08-08T09:47:12.196Z,20544
2017-08-08T09:48:12.016Z,20288
2017-08-08T09:49:12.006Z,19936
2017-08-08T09:50:12.659Z,19456
2017-08-08T09:51:12.120Z,19136
2017-08-08T09:52:12.074Z,18912
2017-08-08T09:53:12.517Z,18912
2017-08-08T09:54:12.103Z,19008
2017-08-08T09:55:12.089Z,19104
2017-08-08T09:56:11.773Z,19136
2017-08-08T09:57:11.764Z,19232
2017-08-08T09:58:11.757Z,19360
2017-08-08T09:59:12.035Z,19264
2017-08-08T10:00:12.028Z,18816
2017-08-08T10:01:11.716Z,18304
2017-08-08T10:02:12.028Z,18048
2017-08-08T10:03:11.982Z,17920
2017-08-08T10:04:11.398Z,17728
2017-08-08T10:05:11.959Z,17472
2017-08-08T10:06:11.956Z,17312
2017-08-08T10:07:11.929Z,17248
2017-08-08T10:08:11.920Z,16944
2017-08-08T10:09:11.909Z,16760
2017-08-08T10:10:12.292Z,16544
2017-08-08T10:11:11.940Z,16404
2017-08-08T10:12:11.581Z,16376
2017-08-08T10:13:11.891Z,16424
2017-08-08T10:14:11.963Z,16540
2017-08-08T10:15:11.665Z,16696
2017-08-08T10:16:11.822Z,16872
2017-08-08T10:17:11.800Z,16996
2017-08-08T10:18:11.502Z,17344
2017-08-08T10:19:11.787Z,17504
2017-08-08T10:20:11.789Z,17504
2017-08-08T10:21:11.751Z,17344
2017-08-08T10:22:11.745Z,16736
2017-08-08T10:23:11.727Z,16028
2017-08-08T10:24:11.720Z,15444
2017-08-08T10:25:11.701Z,15052
2017-08-08T10:26:11.691Z,14784
2017-08-08T10:27:11.796Z,14652
2017-08-08T10:28:12.116Z,14492
2017-08-08T10:29:11.349Z,14352
2017-08-08T10:30:11.336Z,14380
2017-08-08T10:31:11.325Z,14488
2017-08-08T10:32:11.311Z,14472
2017-08-08T10:33:11.011Z,14372
2017-08-08T10:34:10.990Z,14100
2017-08-08T10:35:11.277Z,13844
2017-08-08T10:36:11.048Z,13568
2017-08-08T10:37:11.259Z,13276
2017-08-08T10:38:11.543Z,12848
2017-08-08T10:39:11.526Z,12200
2017-08-08T10:40:11.509Z,11416
2017-08-08T10:41:10.895Z,10724
2017-08-08T10:42:11.474Z,10164
2017-08-08T10:43:11.458Z,9776
2017-08-08T10:44:11.448Z,9268
2017-08-08T10:45:11.437Z,8888
2017-08-08T10:46:11.150Z,8588
2017-08-08T10:47:11.407Z,8520
2017-08-08T10:48:11.393Z,8568
2017-08-08T10:49:11.079Z,8584
2017-08-08T10:50:11.365Z,8968
2017-08-08T10:51:11.347Z,10004
2017-08-08T10:52:11.339Z,11604
2017-08-08T10:53:11.333Z,13084
2017-08-08T10:54:11.312Z,14192
2017-08-08T10:55:11.297Z,15040
2017-08-08T10:56:10.985Z,15480
2017-08-08T10:57:11.265Z,15384
2017-08-08T10:58:11.249Z,15180
2017-08-08T10:59:11.237Z,15160
2017-08-08T11:00:11.223Z,15188
2017-08-08T11:01:11.210Z,15076
2017-08-08T11:02:11.205Z,14664
2017-08-08T11:03:11.180Z,13956
2017-08-08T11:04:11.169Z,13308
2017-08-08T11:05:11.158Z,12848
2017-08-08T11:06:11.138Z,12564
2017-08-08T11:07:10.857Z,12320
2017-08-08T11:08:11.101Z,12440
2017-08-08T11:09:11.153Z,12908
2017-08-08T11:10:11.072Z,13892
2017-08-08T11:11:11.004Z,15072
2017-08-08T11:12:11.282Z,16112
2017-08-08T11:13:11.058Z,16860
2017-08-08T11:14:10.369Z,17332
2017-08-08T11:15:11.023Z,17392
2017-08-08T11:16:10.685Z,17308
2017-08-08T11:17:10.980Z,17600
2017-08-08T11:18:10.954Z,17888
2017-08-08T11:19:10.935Z,18240
2017-08-08T11:20:10.624Z,18688
2017-08-08T11:21:10.906Z,19072
2017-08-08T11:22:10.297Z,19072
2017-08-08T11:23:10.886Z,18496
2017-08-08T11:24:10.876Z,17412
2017-08-08T11:25:10.850Z,16364
2017-08-08T11:26:10.829Z,15356
2017-08-08T11:27:10.813Z,14772
2017-08-08T11:28:10.798Z,14720
2017-08-08T11:29:10.784Z,15068
2017-08-08T11:30:10.876Z,15696
2017-08-08T11:31:10.753Z,16256
2017-08-08T11:32:10.741Z,16400
2017-08-08T11:33:10.722Z,16516
2017-08-08T11:34:10.714Z,16532
2017-08-08T11:35:10.389Z,16560
2017-08-08T11:36:10.391Z,16392
2017-08-08T11:37:10.366Z,15864
2017-08-08T11:38:10.179Z,15200
2017-08-08T11:39:10.358Z,14420
2017-08-08T11:40:10.398Z,13628
2017-08-08T11:41:10.369Z,13084
2017-08-08T11:42:10.490Z,12560
2017-08-08T11:43:10.562Z,11980
2017-08-08T11:44:10.248Z,11404
2017-08-08T11:45:10.537Z,10980
2017-08-08T11:46:10.219Z,10940
2017-08-08T11:47:10.209Z,11200
2017-08-08T11:48:10.485Z,11720
2017-08-08T11:49:10.483Z,12296
2017-08-08T11:50:10.153Z,12524
2017-08-08T11:51:10.855Z,12392
2017-08-08T11:52:10.254Z,12068
2017-08-08T11:53:09.972Z,11664
2017-08-08T11:54:10.631Z,11804
2017-08-08T11:55:10.696Z,12828
2017-08-08T11:56:10.372Z,14140
2017-08-08T11:57:10.350Z,15148
2017-08-08T11:58:10.428Z,15640
2017-08-08T11:59:09.742Z,15616
2017-08-08T12:00:10.301Z,15256
2017-08-08T12:01:09.976Z,14724
2017-08-08T12:02:10.247Z,14044
2017-08-08T12:03:10.235Z,13364
2017-08-08T12:04:09.929Z,12952
2017-08-08T12:05:09.916Z,12424
2017-08-08T12:06:10.209Z,12028
2017-08-08T12:07:09.881Z,11920
2017-08-08T12:08:09.866Z,12780
2017-08-08T12:09:10.141Z,14420
2017-08-08T12:10:10.128Z,15928
2017-08-08T12:11:10.111Z,16828
2017-08-08T12:12:10.091Z,17208
2017-08-08T12:13:09.776Z,16852
2017-08-08T12:14:09.762Z,16852
2017-08-08T12:15:09.987Z,17728
2017-08-08T12:16:10.027Z,18784
2017-08-08T12:17:09.728Z,20384
2017-08-08T12:18:10.217Z,21568
2017-08-08T12:19:09.974Z,21600
2017-08-08T12:20:09.368Z,21120
2017-08-08T12:21:09.945Z,20480
2017-08-08T12:22:09.633Z,19584
2017-08-08T12:23:09.910Z,18464
2017-08-08T12:24:10.097Z,17952
2017-08-08T12:25:09.584Z,18400
2017-08-08T12:26:09.893Z,19360
2017-08-08T12:27:09.849Z,20352
2017-08-08T12:28:09.833Z,21472
2017-08-08T12:29:09.816Z,23168
2017-08-08T12:30:09.803Z,24576
2017-08-08T12:31:09.790Z,24160
2017-08-08T12:32:09.770Z,21696
2017-08-08T12:33:09.756Z,19200
2017-08-08T12:34:10.287Z,17388
2017-08-08T12:35:09.423Z,16648
2017-08-08T12:36:09.411Z,16116
2017-08-08T12:37:09.694Z,15892
2017-08-08T12:38:09.689Z,15936
2017-08-08T12:39:09.375Z,15640
2017-08-08T12:40:09.644Z,14420
2017-08-08T12:41:09.341Z,13188
2017-08-08T12:42:09.324Z,12892
2017-08-08T12:43:09.599Z,13852
2017-08-08T12:44:09.594Z,14924
2017-08-08T12:45:09.275Z,14424
2017-08-08T12:46:09.556Z,12600
2017-08-08T12:47:09.252Z,10852
2017-08-08T12:48:09.531Z,10096
2017-08-08T12:49:09.537Z,9900
2017-08-08T12:50:09.498Z,9444
2017-08-08T12:51:09.489Z,8736
2017-08-08T12:52:09.166Z,7824
2017-08-08T12:53:09.152Z,6988
2017-08-08T12:54:09.435Z,6268
2017-08-08T12:55:09.417Z,5676
2017-08-08T12:56:09.129Z,5488
2017-08-08T12:57:09.092Z,5664
2017-08-08T12:58:09.368Z,5932
2017-08-08T12:59:09.349Z,6036
2017-08-08T13:00:09.346Z,5936
2017-08-08T13:01:09.544Z,5720
2017-08-08T13:02:09.303Z,5584
2017-08-08T13:03:09.328Z,5856
2017-08-08T13:04:08.982Z,6556
2017-08-08T13:05:09.255Z,7188
2017-08-08T13:06:09.238Z,7140
2017-08-08T13:07:08.924Z,6404
2017-08-08T13:08:09.272Z,5580
2017-08-08T13:09:09.259Z,5212
2017-08-08T13:10:09.027Z,5012
2017-08-08T13:11:09.152Z,4732
2017-08-08T13:12:08.892Z,5096
2017-08-08T13:13:09.125Z,6880
2017-08-08T13:14:09.109Z,9904
2017-08-08T13:15:08.791Z,11732
2017-08-08T13:16:08.772Z,11624
2017-08-08T13:17:09.065Z,10632
2017-08-08T13:18:08.739Z,9476
2017-08-08T13:19:09.026Z,8848
2017-08-08T13:20:09.006Z,8552
2017-08-08T13:21:08.985Z,8260
2017-08-08T13:22:08.972Z,7924
2017-08-08T13:23:08.360Z,7492
2017-08-08T13:24:08.931Z,6788
2017-08-08T13:25:08.923Z,6008
2017-08-08T13:26:08.794Z,5556
2017-08-08T13:27:08.880Z,5420
2017-08-08T13:28:08.857Z,5324
2017-08-08T13:29:08.852Z,5380